createdAt,value
2023-03-25T00:02:31.111Z,97152.56
2023-03-25T00:05:33.936Z,97148.59
2023-03-25T00:08:37.263Z,97154.31
2023-03-25T00:11:41.069Z,97155.66
2023-03-25T00:14:55.219Z,97138.63
2023-03-25T00:17:58.491Z,97126.53
2023-03-25T00:21:02.750Z,97117.63
2023-03-25T00:24:05.704Z,97119.19
2023-03-25T00:27:10.792Z,97117.66
2023-03-25T00:30:21.286Z,97122.78
2023-03-25T00:33:24.012Z,97125.78
2023-03-25T00:36:27.949Z,97126.66
2023-03-25T00:39:30.904Z,97129.75
2023-03-25T00:42:45.168Z,97127.13
2023-03-25T00:45:49.747Z,97128.59
2023-03-25T00:48:53.024Z,97130.97
2023-03-25T00:51:58.746Z,97121.06
2023-03-25T00:55:02.449Z,97131.34
2023-03-25T00:58:06.176Z,97133.16
2023-03-25T01:01:17.386Z,97130.78
2023-03-25T01:04:20.287Z,97135.66
2023-03-25T01:07:25.561Z,97130.88
2023-03-25T01:10:28.457Z,97135.00
2023-03-25T01:13:32.658Z,97144.13
2023-03-25T01:16:35.679Z,97140.31
2023-03-25T01:19:40.057Z,97143.16
2023-03-25T01:22:42.697Z,97134.72
2023-03-25T01:25:47.091Z,97139.31
2023-03-25T01:28:51.480Z,97144.81
2023-03-25T01:31:56.262Z,97139.09
2023-03-25T01:34:59.109Z,97138.88
2023-03-25T01:38:08.224Z,97131.84
2023-03-25T01:41:13.620Z,97136.47
2023-03-25T01:44:20.128Z,97130.63
2023-03-25T01:47:27.031Z,97137.13
2023-03-25T01:50:29.908Z,97135.41
2023-03-25T01:53:35.896Z,97139.66
2023-03-25T01:56:43.011Z,97126.63
2023-03-25T01:59:46.172Z,97114.84
2023-03-25T02:02:51.695Z,97128.34
2023-03-25T02:06:15.789Z,97116.03
2023-03-25T02:09:21.510Z,97118.00
2023-03-25T02:12:26.024Z,97101.53
2023-03-25T02:15:31.953Z,97096.09
2023-03-25T02:19:06.287Z,97109.25
2023-03-25T02:22:15.021Z,97117.66
2023-03-25T02:25:19.547Z,97117.84
2023-03-25T02:28:37.387Z,97116.44
2023-03-25T02:31:45.190Z,97123.91
2023-03-25T02:35:09.840Z,97131.44
2023-03-25T02:38:19.691Z,97119.78
2023-03-25T02:41:38.566Z,97110.91
2023-03-25T02:45:08.382Z,97120.81
2023-03-25T02:48:45.832Z,97122.69
2023-03-25T02:52:04.648Z,97101.16
2023-03-25T02:55:12.823Z,97096.88
2023-03-25T02:58:18.373Z,97106.41
2023-03-25T03:01:23.121Z,97112.06
2023-03-25T03:04:28.231Z,97114.81
2023-03-25T03:07:34.971Z,97104.84
2023-03-25T03:11:11.263Z,97104.38
2023-03-25T03:14:44.953Z,97112.06
2023-03-25T03:18:13.618Z,97119.06
2023-03-25T03:21:23.530Z,97113.09
2023-03-25T03:24:32.367Z,97125.25
2023-03-25T03:28:14.648Z,97130.28
2023-03-25T03:31:48.836Z,97140.66
2023-03-25T03:34:56.623Z,97133.75
2023-03-25T03:38:06.585Z,97135.19
2023-03-25T03:41:12.773Z,97153.78
2023-03-25T03:44:21.570Z,97151.50
2023-03-25T03:47:30.870Z,97157.59
2023-03-25T03:50:39.134Z,97154.16
2023-03-25T03:54:04.745Z,97149.91
2023-03-25T03:57:14.333Z,97159.41
2023-03-25T04:00:24.419Z,97154.84
2023-03-25T04:03:35.203Z,97152.06
2023-03-25T04:06:42.668Z,97161.78
2023-03-25T04:09:55.421Z,97167.91
2023-03-25T04:13:01.896Z,97175.25
2023-03-25T04:16:05.295Z,97177.88
2023-03-25T04:19:13.899Z,97180.16
2023-03-25T04:22:23.610Z,97163.47
2023-03-25T04:25:26.678Z,97174.97
2023-03-25T04:28:32.377Z,97163.66
2023-03-25T04:31:35.460Z,97169.88
2023-03-25T04:34:38.798Z,97155.06
2023-03-25T04:37:42.050Z,97167.75
2023-03-25T04:40:48.057Z,97179.88
2023-03-25T04:43:50.842Z,97197.38
2023-03-25T04:46:54.271Z,97194.16
2023-03-25T04:49:57.006Z,97210.88
2023-03-25T04:53:03.249Z,97193.28
2023-03-25T04:56:07.261Z,97192.38
2023-03-25T04:59:10.971Z,97204.56
2023-03-25T05:02:13.981Z,97207.31
2023-03-25T05:05:19.308Z,97205.53
2023-03-25T05:08:23.061Z,97221.59
2023-03-25T05:11:29.393Z,97221.28
2023-03-25T05:14:32.179Z,97232.22
2023-03-25T05:17:35.313Z,97235.00
2023-03-25T05:20:41.435Z,97239.81
2023-03-25T05:23:44.968Z,97243.53
2023-03-25T05:26:48.216Z,97243.50
2023-03-25T05:29:51.014Z,97241.69
2023-03-25T05:32:56.555Z,97237.56
2023-03-25T05:36:01.859Z,97239.19
2023-03-25T05:39:05.882Z,97234.31
2023-03-25T05:42:11.822Z,97234.66
2023-03-25T05:45:19.204Z,97231.41
2023-03-25T05:48:21.978Z,97212.94
2023-03-25T05:51:26.327Z,97205.66
2023-03-25T05:54:29.774Z,97211.81
2023-03-25T05:57:32.982Z,97212.69
2023-03-25T06:00:37.247Z,97217.31
2023-03-25T06:03:43.481Z,97213.09
2023-03-25T06:06:46.422Z,97215.09
2023-03-25T06:09:50.012Z,97219.13
2023-03-25T06:12:53.371Z,97224.69
2023-03-25T06:15:57.780Z,97225.56
2023-03-25T06:19:00.940Z,97223.59
2023-03-25T06:22:09.679Z,97226.97
2023-03-25T06:25:17.727Z,97220.00
2023-03-25T06:28:21.074Z,97226.31
2023-03-25T06:31:26.946Z,97231.00
2023-03-25T06:34:30.039Z,97231.13
2023-03-25T06:37:34.017Z,97241.69
2023-03-25T06:40:43.949Z,97250.28
2023-03-25T06:43:47.989Z,97242.41
2023-03-25T06:47:26.148Z,97243.44
2023-03-25T06:50:29.195Z,97245.66
2023-03-25T06:53:33.124Z,97253.91
2023-03-25T06:56:36.203Z,97252.03
2023-03-25T06:59:39.332Z,97251.53
2023-03-25T07:02:42.322Z,97258.91
2023-03-25T07:05:47.005Z,97250.84
2023-03-25T07:08:49.991Z,97243.31
2023-03-25T07:11:56.020Z,97245.91
2023-03-25T07:14:59.430Z,97248.38
2023-03-25T07:18:03.243Z,97254.84
2023-03-25T07:21:06.360Z,97259.00
2023-03-25T07:24:11.239Z,97270.66
2023-03-25T07:27:14.965Z,97272.53
2023-03-25T07:30:24.907Z,97254.91
2023-03-25T07:33:27.719Z,97253.63
2023-03-25T07:36:30.779Z,97248.69
2023-03-25T07:39:33.514Z,97253.19
2023-03-25T07:42:37.877Z,97257.66
2023-03-25T07:45:52.264Z,97257.38
2023-03-25T07:48:55.206Z,97252.84
2023-03-25T07:51:58.002Z,97262.84
2023-03-25T07:55:01.293Z,97266.25
2023-03-25T07:58:04.012Z,97269.59
2023-03-25T08:01:07.268Z,97267.19
2023-03-25T08:04:10.220Z,97267.41
2023-03-25T08:07:13.289Z,97278.91
2023-03-25T08:10:17.222Z,97284.34
2023-03-25T08:13:20.744Z,97276.88
2023-03-25T08:16:23.841Z,97273.34
2023-03-25T08:19:28.009Z,97284.84
2023-03-25T08:22:30.861Z,97283.09
2023-03-25T08:25:34.022Z,97267.88
2023-03-25T08:28:36.720Z,97261.88
2023-03-25T08:31:41.270Z,97258.53
2023-03-25T08:34:44.058Z,97253.38
2023-03-25T08:37:46.890Z,97254.13
2023-03-25T08:40:49.977Z,97238.31
2023-03-25T08:43:53.569Z,97240.44
2023-03-25T08:46:56.667Z,97244.78
2023-03-25T08:49:59.784Z,97235.22
2023-03-25T08:53:02.733Z,97229.03
2023-03-25T08:56:07.553Z,97230.41
2023-03-25T08:59:10.547Z,97222.31
2023-03-25T09:02:13.672Z,97224.88
2023-03-25T09:05:17.115Z,97213.56
2023-03-25T09:08:20.038Z,97202.63
2023-03-25T09:11:33.894Z,97191.16
2023-03-25T09:14:39.400Z,97196.25
2023-03-25T09:17:43.225Z,97194.06
2023-03-25T09:20:48.794Z,97191.38
2023-03-25T09:23:51.579Z,97202.91
2023-03-25T09:26:54.264Z,97206.91
2023-03-25T09:29:57.117Z,97188.63
2023-03-25T09:33:01.503Z,97195.19
2023-03-25T09:36:04.677Z,97206.50
2023-03-25T09:39:08.883Z,97214.75
2023-03-25T09:42:31.371Z,97229.22
2023-03-25T09:45:37.354Z,97210.88
2023-03-25T09:48:43.009Z,97215.38
2023-03-25T09:51:47.001Z,97214.47
2023-03-25T09:54:55.891Z,97219.28
2023-03-25T09:58:57.086Z,97217.25
2023-03-25T10:02:03.586Z,97220.00
2023-03-25T10:05:34.859Z,97209.66
2023-03-25T10:09:02.342Z,97205.19
2023-03-25T10:12:30.379Z,97199.03
2023-03-25T10:15:39.785Z,97190.34
2023-03-25T10:18:54.890Z,97180.81
2023-03-25T10:22:26.016Z,97174.41
2023-03-25T10:25:32.298Z,97189.78
2023-03-25T10:28:39.010Z,97180.47
2023-03-25T10:31:51.145Z,97185.66
2023-03-25T10:34:56.460Z,97173.19
2023-03-25T10:38:06.588Z,97180.59
2023-03-25T10:41:17.855Z,97192.34
2023-03-25T10:44:21.879Z,97197.13
2023-03-25T10:47:28.367Z,97179.16
2023-03-25T10:50:31.306Z,97181.16
2023-03-25T10:53:34.783Z,97177.56
2023-03-25T10:56:42.866Z,97190.81
2023-03-25T11:00:29.822Z,97190.53
2023-03-25T11:03:35.820Z,97173.88
2023-03-25T11:06:41.591Z,97179.25
2023-03-25T11:09:44.503Z,97182.53
2023-03-25T11:12:48.547Z,97190.94
2023-03-25T11:15:56.404Z,97192.66
2023-03-25T11:19:02.373Z,97180.53
2023-03-25T11:22:16.573Z,97178.97
2023-03-25T11:25:24.579Z,97171.06
2023-03-25T11:28:45.761Z,97168.25
2023-03-25T11:32:06.942Z,97179.97
2023-03-25T11:35:17.110Z,97189.22
2023-03-25T11:38:23.238Z,97180.88
2023-03-25T11:41:29.779Z,97193.88
2023-03-25T11:44:33.305Z,97176.06
2023-03-25T11:47:39.586Z,97183.56
2023-03-25T11:50:55.040Z,97192.72
2023-03-25T11:54:00.345Z,97194.13
2023-03-25T11:57:07.948Z,97192.72
2023-03-25T12:00:36.117Z,97187.09
2023-03-25T12:03:42.508Z,97176.53
2023-03-25T12:07:09.802Z,97193.75
2023-03-25T12:10:36.147Z,97204.44
2023-03-25T12:13:54.142Z,97205.84
2023-03-25T12:17:21.697Z,97197.50
2023-03-25T12:20:33.000Z,97192.25
2023-03-25T12:24:19.165Z,97182.59
2023-03-25T12:27:38.284Z,97184.47
2023-03-25T12:31:07.167Z,97180.22
2023-03-25T12:34:30.892Z,97172.72
2023-03-25T12:37:45.156Z,97181.41
2023-03-25T12:40:55.141Z,97186.47
2023-03-25T12:43:59.179Z,97183.00
2023-03-25T12:47:08.745Z,97181.50
2023-03-25T12:50:49.532Z,97186.63
2023-03-25T12:53:52.412Z,97184.06
2023-03-25T12:57:14.054Z,97179.13
2023-03-25T13:00:42.838Z,97180.94
2023-03-25T13:04:13.591Z,97177.09
2023-03-25T13:07:20.111Z,97180.22
2023-03-25T13:10:25.600Z,97182.94
2023-03-25T13:13:30.337Z,97175.56
2023-03-25T13:16:35.644Z,97169.25
2023-03-25T13:19:44.362Z,97191.16
2023-03-25T13:22:51.801Z,97194.44
2023-03-25T13:26:12.230Z,97198.34
2023-03-25T13:29:22.464Z,97187.66
2023-03-25T13:32:39.699Z,97191.59
2023-03-25T13:36:06.328Z,97183.63
2023-03-25T13:39:22.499Z,97183.38
2023-03-25T13:42:52.601Z,97186.13
2023-03-25T13:46:00.807Z,97180.56
2023-03-25T13:49:15.887Z,97193.09
2023-03-25T13:52:18.854Z,97187.03
2023-03-25T13:55:35.975Z,97182.75
2023-03-25T13:58:54.090Z,97174.09
2023-03-25T14:02:15.391Z,97177.56
2023-03-25T14:05:42.254Z,97180.59
2023-03-25T14:09:10.404Z,97175.22
2023-03-25T14:12:16.797Z,97162.69
2023-03-25T14:15:38.866Z,97160.13
2023-03-25T14:19:03.579Z,97162.25
2023-03-25T14:22:08.910Z,97155.09
2023-03-25T14:25:23.020Z,97161.66
2023-03-25T14:28:43.677Z,97150.72
2023-03-25T14:32:06.081Z,97156.13
2023-03-25T14:35:34.410Z,97148.41
2023-03-25T14:38:54.710Z,97155.25
2023-03-25T14:42:13.765Z,97159.16
2023-03-25T14:45:34.919Z,97150.31
2023-03-25T14:48:52.935Z,97153.19
2023-03-25T14:51:58.405Z,97155.66
2023-03-25T14:55:07.103Z,97143.53
2023-03-25T14:58:27.188Z,97143.81
2023-03-25T15:01:35.956Z,97142.59
2023-03-25T15:04:39.493Z,97143.00
2023-03-25T15:07:48.609Z,97146.81
2023-03-25T15:11:13.718Z,97141.25
2023-03-25T15:14:21.383Z,97141.25
2023-03-25T15:17:46.307Z,97140.66
2023-03-25T15:20:49.102Z,97132.44
2023-03-25T15:23:59.555Z,97128.00
2023-03-25T15:27:40.198Z,97128.63
2023-03-25T15:31:01.573Z,97137.06
2023-03-25T15:34:24.972Z,97133.56
2023-03-25T15:37:46.681Z,97135.66
2023-03-25T15:40:59.586Z,97137.53
2023-03-25T15:44:06.197Z,97121.84
2023-03-25T15:47:29.050Z,97128.09
2023-03-25T15:50:38.065Z,97124.22
2023-03-25T15:54:08.912Z,97121.19
2023-03-25T15:57:19.131Z,97122.81
2023-03-25T16:00:41.625Z,97119.97
2023-03-25T16:03:45.453Z,97136.50
2023-03-25T16:06:51.437Z,97138.16
2023-03-25T16:09:55.767Z,97140.88
2023-03-25T16:13:02.241Z,97144.63
2023-03-25T16:16:07.412Z,97149.81
2023-03-25T16:19:23.106Z,97150.22
2023-03-25T16:22:30.852Z,97150.59
2023-03-25T16:25:42.145Z,97144.47
2023-03-25T16:28:45.183Z,97131.44
2023-03-25T16:31:59.811Z,97146.88
2023-03-25T16:35:02.760Z,97137.44
2023-03-25T16:38:06.646Z,97141.81
2023-03-25T16:41:14.851Z,97139.63
2023-03-25T16:44:23.307Z,97151.81
2023-03-25T16:47:26.473Z,97141.84
2023-03-25T16:50:29.266Z,97145.63
2023-03-25T16:53:40.280Z,97152.00
2023-03-25T16:56:51.190Z,97153.88
2023-03-25T16:59:57.737Z,97153.53
2023-03-25T17:03:02.163Z,97163.97
2023-03-25T17:06:20.470Z,97166.69
2023-03-25T17:09:28.673Z,97167.88
2023-03-25T17:12:31.674Z,97170.06
2023-03-25T17:15:34.969Z,97175.06
2023-03-25T17:18:40.674Z,97172.31
2023-03-25T17:22:04.023Z,97172.91
2023-03-25T17:25:26.788Z,97179.19
2023-03-25T17:28:39.320Z,97177.91
2023-03-25T17:31:42.338Z,97173.00
2023-03-25T17:34:46.957Z,97172.91
2023-03-25T17:37:50.945Z,97190.28
2023-03-25T17:41:02.888Z,97196.09
2023-03-25T17:44:06.713Z,97197.13
2023-03-25T17:47:15.670Z,97196.56
2023-03-25T17:50:21.491Z,97205.50
2023-03-25T17:53:25.059Z,97211.13
2023-03-25T17:56:29.075Z,97200.59
2023-03-25T17:59:32.015Z,97198.69
2023-03-25T18:02:42.029Z,97203.13
2023-03-25T18:05:45.989Z,97217.00
2023-03-25T18:08:49.334Z,97215.72
2023-03-25T18:11:57.180Z,97213.75
2023-03-25T18:14:59.987Z,97218.34
2023-03-25T18:18:04.611Z,97219.47
2023-03-25T18:21:11.598Z,97216.38
2023-03-25T18:24:14.956Z,97221.13
2023-03-25T18:27:17.850Z,97223.06
2023-03-25T18:30:36.031Z,97232.56
2023-03-25T18:33:38.841Z,97258.00
2023-03-25T18:36:46.089Z,97266.16
2023-03-25T18:39:49.458Z,97262.53
2023-03-25T18:42:53.045Z,97276.66
2023-03-25T18:45:56.555Z,97277.50
2023-03-25T18:49:02.965Z,97268.81
2023-03-25T18:52:06.058Z,97266.50
2023-03-25T18:55:09.937Z,97270.25
2023-03-25T18:58:20.145Z,97272.09
2023-03-25T19:01:24.204Z,97269.81
2023-03-25T19:04:27.592Z,97263.91
2023-03-25T19:07:30.442Z,97271.59
2023-03-25T19:10:35.611Z,97270.91
2023-03-25T19:13:38.626Z,97271.78
2023-03-25T19:16:46.098Z,97272.75
2023-03-25T19:19:54.339Z,97273.91
2023-03-25T19:22:57.745Z,97275.41
2023-03-25T19:26:01.606Z,97282.59
2023-03-25T19:29:04.746Z,97278.34
2023-03-25T19:32:07.658Z,97282.28
2023-03-25T19:35:12.957Z,97278.50
2023-03-25T19:38:20.056Z,97270.78
2023-03-25T19:41:23.301Z,97277.34
2023-03-25T19:44:26.178Z,97276.53
2023-03-25T19:47:29.235Z,97281.59
2023-03-25T19:50:33.457Z,97284.22
2023-03-25T19:53:36.460Z,97282.91
2023-03-25T19:56:40.030Z,97274.69
2023-03-25T19:59:44.570Z,97282.56
2023-03-25T20:02:50.567Z,97283.84
2023-03-25T20:06:00.677Z,97288.44
2023-03-25T20:09:06.760Z,97284.81
2023-03-25T20:12:09.594Z,97297.06
2023-03-25T20:15:13.485Z,97296.56
2023-03-25T20:18:16.895Z,97302.13
2023-03-25T20:21:22.024Z,97298.53
2023-03-25T20:24:25.116Z,97300.00
2023-03-25T20:27:28.908Z,97292.31
2023-03-25T20:30:34.606Z,97293.25
2023-03-25T20:33:37.349Z,97308.97
2023-03-25T20:36:40.755Z,97313.69
2023-03-25T20:39:43.744Z,97309.72
2023-03-25T20:42:48.003Z,97297.28
2023-03-25T20:45:55.979Z,97304.28
2023-03-25T20:48:59.229Z,97307.88
2023-03-25T20:52:02.174Z,97314.75
2023-03-25T20:55:06.129Z,97310.31
2023-03-25T20:58:09.358Z,97318.28
2023-03-25T21:01:12.478Z,97313.88
2023-03-25T21:04:15.695Z,97307.50
2023-03-25T21:07:19.702Z,97310.41
2023-03-25T21:10:22.668Z,97301.41
2023-03-25T21:13:31.790Z,97299.47
2023-03-25T21:16:34.563Z,97296.59
2023-03-25T21:19:37.797Z,97300.00
2023-03-25T21:22:44.724Z,97299.50
2023-03-25T21:25:50.496Z,97300.50
2023-03-25T21:28:53.522Z,97300.81
2023-03-25T21:31:56.773Z,97294.34
2023-03-25T21:35:00.180Z,97294.19
2023-03-25T21:38:07.655Z,97295.66
2023-03-25T21:41:11.102Z,97296.47
2023-03-25T21:44:16.290Z,97288.03
2023-03-25T21:47:18.998Z,97292.63
2023-03-25T21:50:22.193Z,97288.28
2023-03-25T21:53:31.689Z,97291.88
2023-03-25T21:56:35.193Z,97297.25
2023-03-25T21:59:38.225Z,97295.75
2023-03-25T22:02:44.909Z,97295.25
2023-03-25T22:05:47.860Z,97308.47
2023-03-25T22:08:51.124Z,97306.19
2023-03-25T22:11:53.991Z,97314.84
2023-03-25T22:14:56.815Z,97314.66
2023-03-25T22:17:59.598Z,97313.19
2023-03-25T22:21:10.067Z,97296.38
2023-03-25T22:24:12.884Z,97314.03
2023-03-25T22:27:15.901Z,97309.41
2023-03-25T22:30:18.624Z,97309.41
2023-03-25T22:33:21.690Z,97321.28
2023-03-25T22:36:24.546Z,97314.88
2023-03-25T22:39:28.801Z,97323.66
2023-03-25T22:42:31.487Z,97333.19
2023-03-25T22:45:34.284Z,97330.88
2023-03-25T22:48:39.634Z,97333.19
2023-03-25T22:51:42.655Z,97339.88
2023-03-25T22:54:45.357Z,97340.03
2023-03-25T22:57:48.024Z,97338.06
2023-03-25T23:00:51.274Z,97341.63
2023-03-25T23:03:57.680Z,97350.88
2023-03-25T23:07:07.709Z,97355.50
2023-03-25T23:10:14.073Z,97353.41
2023-03-25T23:13:19.796Z,97363.91
2023-03-25T23:16:26.137Z,97370.28
2023-03-25T23:19:28.847Z,97376.03
2023-03-25T23:22:32.014Z,97364.34
2023-03-25T23:25:35.078Z,97372.66
2023-03-25T23:28:38.219Z,97366.63
2023-03-25T23:31:43.044Z,97367.91
2023-03-25T23:34:45.746Z,97376.19
2023-03-25T23:37:50.541Z,97365.84
2023-03-25T23:41:10.780Z,97361.81
2023-03-25T23:44:13.954Z,97359.19
2023-03-25T23:47:17.216Z,97359.88
2023-03-25T23:50:19.913Z,97356.28
2023-03-25T23:53:23.732Z,97358.44
2023-03-25T23:56:26.516Z,97355.03
2023-03-25T23:59:29.224Z,97358.81
